Moises Ville, Argentina
Current Conditions -  °F | °C
As of 5:00 PM on Wednesday 26 Nov 2014 (Local Time) from SAAR Reporting Station
Clear Clear  
Wind Chill: 79°   Ceiling: Unl
Heat Index: 79°   Visibility: 6mi
Dew Point: 55°   Wind: 10mph
Humidity: 44%   Direction: 50°NE
Pressure: 29.88"   Gusts: NA
Location:  30.72°S, 61.48°W
Report Text: SAAR 262000Z 05009KT CAVOK 26/13 Q1012
Loading
Personal Weather Stations






























Interactive Weather Map New forecast layout! Learn more

10-Day Weather Forecast

Advertisements
Track Severe Weather on mobile